Wind From: 11-12-2017 10:04 Until: 12-12-2017 06:00 warning for: Wind Level: Orange info button

Power and phone distribution networks may be disrupted for relatively long periods., Roofs and chimneys can be damaged. , Tree branches may break. , Vehicles can be deported. , Traffic may be disrupted, particularly on secondary roads in forest areas. Limit your trips. , Limit your speed in highway driving, especially if you drive a vehicle or hitch sensitive to wind. , Do not go for walks in forests or along the coast., In town, be vigilant against possible falling objects., Do not work on roofs and do not touch any electrical line fallen on the ground., Store or secure sensitive objects to wind or likely to be damaged., Always install power generators outside buildings. 


Meteo18 Weather Cam more information Meteo18 Weather Cam


Thunder radar more information blitzortung!


Rain radar more information rain snow radar


Visit our other weather sites:

Template documentation
and downloads

And another site



Weather Underground History page Text

Daily Summary for August 30, 2017 Units:  English    Metric   Both
« Previous Day
Next Day »
Daily Weekly Monthly Yearly Custom
  High: Low: Average:
Temperature: 79 °F 60.8 °F 70.2 °F
Dew Point: 66 °F 57.9 °F 63.9 °F
Humidity: 91 % 64 % 81 %
Wind Speed: 14 mph 0 mph 4.2 mph
Wind Gust: 22 mph - -
Wind:- - WSW
Pressure: 30 in 29.8 in -
Precipitation: 0.06 in    
Historical Graphs
 
 
Tabular Data for August 30, 2017
Time Temperature Dew Point Pressure Wind Wind Speed Wind Gust Humidity Rainfall Rate (Hourly)
00:02 79 °F 65.8 °F 29.9 in West 5 mph 12 mph 64 % 0 in
00:12 78.6 °F 65.8 °F 29.9 in West 6 mph 12 mph 65 % 0 in
00:17 78.6 °F 65.8 °F 29.9 in WSW 7 mph 11 mph 65 % 0 in
00:22 78.3 °F 65.5 °F 29.9 in WSW 5 mph 11 mph 65 % 0 in
00:32 78.1 °F 65.3 °F 29.9 in West 8 mph 14 mph 65 % 0 in
00:42 77.2 °F 65.8 °F 29.9 in WSW 5 mph 12 mph 68 % 0 in
00:52 76.5 °F 66 °F 29.9 in West 8 mph 12 mph 70 % 0 in
00:57 76.3 °F 65.8 °F 29.9 in West 7 mph 12 mph 70 % 0 in
01:02 76.1 °F 66 °F 29.9 in WSW 7 mph 12 mph 71 % 0 in
01:12 75.7 °F 65.7 °F 29.9 in West 6 mph 12 mph 71 % 0 in
01:22 75.4 °F 65.7 °F 29.9 in WSW 6 mph 11 mph 72 % 0 in
01:27 75 °F 65.8 °F 29.9 in West 4 mph 11 mph 73 % 0 in
01:32 74.7 °F 65.8 °F 29.9 in West 5 mph 11 mph 74 % 0 in
01:37 74.7 °F 65.8 °F 29.9 in West 2 mph 11 mph 74 % 0 in
01:42 74.3 °F 65.5 °F 29.9 in WSW 3 mph 9 mph 74 % 0 in
01:47 74.1 °F 65.3 °F 29.9 in WNW 2 mph 9 mph 74 % 0 in
01:52 74.1 °F 65.7 °F 29.9 in SW 1 mph 9 mph 75 % 0 in
01:57 73.6 °F 65.5 °F 29.9 in Calm   8 mph 76 % 0 in
02:02 73 °F 65.8 °F 29.9 in Calm   8 mph 78 % 0 in
02:12 72 °F 65.5 °F 29.9 in Calm   5 mph 80 % 0 in
02:17 71.6 °F 65.5 °F 29.9 in SSW 1 mph 2 mph 81 % 0 in
02:22 71.2 °F 65.5 °F 29.9 in Calm   2 mph 82 % 0 in
02:32 70.9 °F 65.1 °F 29.9 in Calm   3 mph 82 % 0 in
02:37 70.9 °F 65.1 °F 29.9 in Calm   3 mph 82 % 0 in
02:42 70.7 °F 64.6 °F 29.9 in Calm   1 mph 81 % 0 in
02:52 70.2 °F 64.8 °F 29.9 in Calm   1 mph 83 % 0 in
03:02 70 °F 64.2 °F 29.9 in SW 2 mph 3 mph 82 % 0 in
03:12 70.2 °F 64.4 °F 29.9 in SW 2 mph 3 mph 82 % 0 in
03:17 70.2 °F 64.4 °F 29.9 in SSW 4 mph 4 mph 82 % 0 in
03:22 69.8 °F 64.4 °F 29.9 in SSW 4 mph 4 mph 83 % 0 in
03:27 69.6 °F 64.2 °F 29.9 in South 2 mph 5 mph 83 % 0 in
03:32 69.4 °F 64.4 °F 29.9 in SSW 1 mph 5 mph 84 % 0 in
03:37 69.3 °F 64.6 °F 29.9 in SSW 2 mph 5 mph 85 % 0 in
03:42 69.1 °F 64.4 °F 29.9 in SSW 1 mph 5 mph 85 % 0 in
03:52 68.7 °F 64.4 °F 29.9 in SSW 2 mph 3 mph 86 % 0 in
03:57 68.5 °F 64.2 °F 29.9 in SSW 1 mph 3 mph 86 % 0 in
04:02 68.2 °F 63.9 °F 29.9 in SW 2 mph 3 mph 86 % 0 in
04:07 67.8 °F 63.5 °F 29.9 in SSW 1 mph 3 mph 86 % 0 in
04:12 67.6 °F 63.7 °F 29.9 in SSW 1 mph 3 mph 87 % 0 in
04:17 67.5 °F 63.5 °F 29.9 in Calm   3 mph 87 % 0 in
04:22 67.3 °F 63.3 °F 29.9 in SSW 1 mph 4 mph 87 % 0 in
04:32 67.1 °F 63.5 °F 29.9 in Calm   4 mph 88 % 0 in
04:37 66.9 °F 63.3 °F 29.9 in SSW 1 mph 3 mph 88 % 0 in
04:42 66.9 °F 63.5 °F 29.9 in SW 2 mph 3 mph 89 % 0 in
04:47 67.1 °F 63.5 °F 29.9 in Calm   2 mph 88 % 0 in
04:52 67.3 °F 63.7 °F 29.9 in SSW 2 mph 3 mph 88 % 0 in
05:02 67.5 °F 63.9 °F 29.9 in SW 2 mph 4 mph 88 % 0 in
05:12 67.8 °F 63.9 °F 29.9 in SW 2 mph 4 mph 87 % 0 in
05:17 67.8 °F 63.9 °F 29.9 in SSE 1 mph 4 mph 87 % 0 in
05:22 67.8 °F 63.9 °F 29.9 in Calm   3 mph 87 % 0 in
05:32 67.6 °F 63.7 °F 29.9 in Calm   3 mph 87 % 0 in
05:42 67.6 °F 63.7 °F 29.9 in Calm   3 mph 87 % 0 in
05:47 67.6 °F 63.7 °F 29.9 in Calm   3 mph 87 % 0 in
05:52 67.6 °F 63.7 °F 29.9 in SW 1 mph 2 mph 87 % 0 in
05:57 67.8 °F 63.5 °F 29.9 in WSW 3 mph 3 mph 86 % 0 in
06:02 68 °F 63.7 °F 29.9 in Calm   5 mph 86 % 0 in
06:12 68.2 °F 63.5 °F 29.9 in SW 2 mph 5 mph 85 % 0 in
06:17 68.2 °F 63.5 °F 29.9 in SW 2 mph 5 mph 85 % 0 in
06:32 67.8 °F 63.1 °F 29.9 in Calm   7 mph 85 % 0 in
06:37 67.8 °F 63.1 °F 29.9 in WSW 1 mph 5 mph 85 % 0 in
06:42 67.8 °F 63.1 °F 29.9 in Calm   5 mph 85 % 0 in
06:47 67.8 °F 63.1 °F 29.9 in Calm   5 mph 85 % 0 in
06:52 67.8 °F 63.1 °F 29.9 in SW 5 mph 5 mph 85 % 0 in
07:02 67.6 °F 63.3 °F 29.9 in Calm   4 mph 86 % 0 in
07:07 67.6 °F 63.3 °F 29.9 in Calm   4 mph 86 % 0 in
07:17 67.5 °F 63.1 °F 29.9 in Calm   5 mph 86 % 0 in
07:22 67.5 °F 63.1 °F 29.9 in SW 1 mph 3 mph 86 % 0 in
07:32 67.5 °F 63.1 °F 29.9 in SW 2 mph 4 mph 86 % 0 in
07:42 67.5 °F 63.1 °F 29.9 in SW 1 mph 4 mph 86 % 0 in
08:02 67.3 °F 63 °F 29.9 in SW 6 mph 6 mph 86 % 0 in
08:12 67.5 °F 63.1 °F 29.9 in SSW 4 mph 8 mph 86 % 0 in
08:17 67.5 °F 63.1 °F 29.9 in SSW 3 mph 8 mph 86 % 0 in
08:22 67.6 °F 63.3 °F 29.9 in SW 4 mph 6 mph 86 % 0 in
08:32 67.8 °F 63.1 °F 29.9 in SW 6 mph 7 mph 85 % 0 in
08:42 68 °F 63.3 °F 29.9 in WSW 1 mph 8 mph 85 % 0 in
08:52 68.2 °F 63.1 °F 29.9 in South 6 mph 8 mph 84 % 0 in
09:02 68.2 °F 63.1 °F 29.9 in WSW 2 mph 8 mph 84 % 0 in
09:12 68.5 °F 63.5 °F 29.9 in West 3 mph 8 mph 84 % 0 in
09:17 68.9 °F 63.5 °F 29.9 in SW 4 mph 8 mph 83 % 0 in
09:22 69.1 °F 63.3 °F 29.9 in SSE 3 mph 9 mph 82 % 0 in
09:27 69.3 °F 63.5 °F 29.9 in West 5 mph 9 mph 82 % 0 in
09:32 69.6 °F 63.9 °F 29.9 in SW 9 mph 10 mph 82 % 0 in
09:42 69.8 °F 63.3 °F 29.9 in WSW 4 mph 14 mph 80 % 0 in
09:47 69.8 °F 63.3 °F 29.9 in West 2 mph 14 mph 80 % 0 in
09:57 70 °F 63.1 °F 29.9 in WSW 8 mph 12 mph 79 % 0 in
10:02 69.8 °F 63.3 °F 29.9 in SW 5 mph 15 mph 80 % 0 in
10:12 70.2 °F 63.3 °F 29.9 in West 5 mph 15 mph 79 % 0 in
10:17 70.2 °F 63.3 °F 29.9 in West 8 mph 15 mph 79 % 0 in
10:22 70.5 °F 63.7 °F 29.9 in SW 1 mph 11 mph 79 % 0 in
10:32 70.9 °F 63.7 °F 29.9 in WSW 9 mph 12 mph 78 % 0 in
10:42 70.7 °F 63.5 °F 29.9 in SW 3 mph 13 mph 78 % 0 in
10:47 70.7 °F 63.5 °F 29.9 in WSW 4 mph 13 mph 78 % 0 in
10:52 70.9 °F 63.7 °F 29.9 in WSW 4 mph 9 mph 78 % 0 in
10:57 71.1 °F 64.2 °F 29.9 in West 5 mph 9 mph 79 % 0 in
11:02 71.4 °F 63.9 °F 29.9 in WSW 8 mph 9 mph 77 % 0 in
11:12 71.2 °F 64 °F 29.9 in SW 6 mph 10 mph 78 % 0 in
11:17 71.1 °F 63.9 °F 29.9 in WSW 4 mph 10 mph 78 % 0 in
11:22 71.1 °F 63.9 °F 29.9 in WSW 3 mph 11 mph 78 % 0 in
11:32 70.9 °F 64 °F 29.9 in SW 8 mph 11 mph 79 % 0 in
11:37 70.5 °F 63.7 °F 29.9 in SW 8 mph 11 mph 79 % 0 in
11:42 70.7 °F 63.9 °F 29.9 in WSW 8 mph 10 mph 79 % 0 in
11:47 70.9 °F 64 °F 29.9 in SW 8 mph 10 mph 79 % 0 in
11:57 71.2 °F 64.4 °F 29.9 in SW 4 mph 13 mph 79 % 0 in
12:02 71.4 °F 64.2 °F 29.9 in SW 5 mph 13 mph 78 % 0 in
12:12 71.4 °F 63.9 °F 29.9 in SW 7 mph 10 mph 77 % 0 in
12:17 71.4 °F 63.5 °F 29.9 in WSW 5 mph 10 mph 76 % 0 in
12:22 71.4 °F 63.9 °F 29.9 in SW 10 mph 10 mph 77 % 0 in
12:32 71.8 °F 64.2 °F 29.9 in WSW 2 mph 10 mph 77 % 0 in
12:37 72 °F 64.4 °F 29.9 in SW 4 mph 10 mph 77 % 0 in
12:42 72 °F 64 °F 29.9 in West 3 mph 11 mph 76 % 0 in
12:47 71.8 °F 63.9 °F 29.9 in WSW 4 mph 11 mph 76 % 0 in
12:52 71.8 °F 63.9 °F 29.9 in SW 2 mph 10 mph 76 % 0 in
13:02 71.8 °F 63.9 °F 29.9 in South 6 mph 10 mph 76 % 0 in
13:12 72 °F 63.7 °F 29.9 in SSW 4 mph 11 mph 75 % 0 in
13:17 72 °F 64 °F 29.9 in SW 2 mph 11 mph 76 % 0 in
13:22 72 °F 64 °F 29.9 in WSW 2 mph 11 mph 76 % 0 in
13:32 72.3 °F 64.4 °F 29.9 in WSW 4 mph 9 mph 76 % 0 in
13:42 72.7 °F 64.2 °F 29.9 in SW 8 mph 8 mph 75 % 0 in
13:47 72.7 °F 63.9 °F 29.9 in SSW 4 mph 8 mph 74 % 0 in
13:52 72.7 °F 63.9 °F 29.9 in WSW 7 mph 12 mph 74 % 0 in
14:02 72.7 °F 63.5 °F 29.9 in SW 4 mph 12 mph 73 % 0 in
14:12 72.5 °F 63.3 °F 29.9 in WSW 4 mph 15 mph 73 % 0 in
14:17 72.3 °F 63.5 °F 29.9 in West 3 mph 15 mph 74 % 0 in
14:27 72.7 °F 63.9 °F 29.9 in SW 8 mph 15 mph 74 % 0 in
14:32 72.7 °F 63.9 °F 29.9 in SW 10 mph 15 mph 74 % 0 in
14:42 72.9 °F 63.7 °F 29.9 in SSW 4 mph 13 mph 73 % 0 in
14:52 73 °F 63.5 °F 29.9 in SSW 7 mph 14 mph 72 % 0 in
15:02 73.2 °F 64 °F 29.9 in South 7 mph 13 mph 73 % 0 in
15:07 72.9 °F 63.7 °F 29.9 in WSW 9 mph 13 mph 73 % 0 in
15:12 72.3 °F 64.4 °F 29.9 in South 10 mph 15 mph 76 % 0 in
15:22 72 °F 65.1 °F 29.9 in WSW 7 mph 15 mph 79 % 0 in
15:32 72.1 °F 64.9 °F 29.9 in WSW 8 mph 13 mph 78 % 0 in
15:42 72.1 °F 64.6 °F 29.9 in SW 9 mph 13 mph 77 % 0 in
15:52 72.7 °F 65.1 °F 29.9 in SSW 4 mph 13 mph 77 % 0 in
16:02 73 °F 64.6 °F 29.9 in SSW 7 mph 10 mph 75 % 0 in
16:12 73.6 °F 64.4 °F 29.9 in SSW 8 mph 14 mph 73 % 0 in
16:17 73.6 °F 64.4 °F 29.9 in SW 5 mph 15 mph 73 % 0 in
16:22 73.8 °F 64.2 °F 29.9 in SSW 8 mph 15 mph 72 % 0 in
16:27 73.9 °F 63.9 °F 29.9 in SW 9 mph 18 mph 71 % 0 in
16:32 74.1 °F 64.9 °F 29.9 in SW 5 mph 18 mph 73 % 0 in
16:37 74.1 °F 64.9 °F 29.9 in WSW 14 mph 18 mph 73 % 0 in
16:42 74.1 °F 64.6 °F 29.9 in WSW 7 mph 18 mph 72 % 0 in
16:52 74.5 °F 64.9 °F 29.9 in SSW 9 mph 14 mph 72 % 0 in
16:57 74.5 °F 64.9 °F 29.9 in SW 7 mph 16 mph 72 % 0 in
17:02 74.3 °F 64.2 °F 29.9 in WSW 11 mph 16 mph 71 % 0 in
17:12 74.7 °F 64.2 °F 29.9 in WSW 7 mph 15 mph 70 % 0 in
17:22 74.7 °F 63.9 °F 29.9 in SW 7 mph 15 mph 69 % 0 in
17:32 74.8 °F 64.4 °F 29.9 in WSW 10 mph 14 mph 70 % 0 in
17:42 74.8 °F 64 °F 29.9 in SW 11 mph 14 mph 69 % 0 in
17:47 74.8 °F 64.4 °F 29.9 in SW 11 mph 13 mph 70 % 0 in
17:52 75 °F 64.6 °F 29.9 in SW 9 mph 13 mph 70 % 0 in
18:02 75 °F 64.6 °F 29.9 in WSW 7 mph 15 mph 70 % 0 in
18:12 75 °F 64.6 °F 29.8 in SSW 4 mph 15 mph 70 % 0 in
18:17 75 °F 64.6 °F 29.8 in SW 5 mph 16 mph 70 % 0 in
18:22 74.8 °F 64.8 °F 29.8 in South 5 mph 16 mph 71 % 0 in
18:32 74.7 °F 64.6 °F 29.9 in SSW 4 mph 15 mph 71 % 0 in
18:42 74.5 °F 64.9 °F 29.9 in SW 7 mph 13 mph 72 % 0 in
18:52 74.7 °F 64.2 °F 29.8 in SSW 9 mph 13 mph 70 % 0 in
18:57 74.7 °F 64.2 °F 29.8 in SW 12 mph 12 mph 70 % 0 in
19:02 74.7 °F 64.6 °F 29.9 in West 12 mph 14 mph 71 % 0 in
19:12 68.2 °F 64.2 °F 29.9 in WNW 9 mph 20 mph 87 % 0 in
19:17 67.5 °F 64 °F 29.9 in WSW 9 mph 22 mph 89 % 0.05 in
19:22 67.5 °F 64.4 °F 29.9 in WNW 3 mph 22 mph 90 % 0.06 in
19:27 67.5 °F 64.4 °F 29.9 in WSW 4 mph 15 mph 90 % 0.06 in
19:32 67.6 °F 64.6 °F 29.9 in West 6 mph 12 mph 90 % 0.06 in
19:42 68 °F 64.9 °F 29.9 in WSW 7 mph 11 mph 90 % 0.06 in
19:52 67.8 °F 64.8 °F 29.9 in West 4 mph 11 mph 90 % 0.06 in
19:57 67.8 °F 64.8 °F 29.9 in SW 2 mph 11 mph 90 % 0.06 in
20:02 67.6 °F 64.6 °F 29.9 in WSW 3 mph 10 mph 90 % 0.06 in
20:12 67.5 °F 64.4 °F 29.9 in WSW 6 mph 10 mph 90 % 0.06 in
20:17 67.5 °F 64.4 °F 29.9 in West 2 mph 7 mph 90 % 0.01 in
20:22 67.5 °F 64.4 °F 29.9 in WSW 1 mph 8 mph 90 % 0 in
20:32 67.3 °F 64.2 °F 29.9 in SW 3 mph 8 mph 90 % 0 in
20:42 67.3 °F 64.6 °F 29.9 in WSW 2 mph 7 mph 91 % 0 in
20:47 67.1 °F 64.4 °F 29.9 in WSW 3 mph 7 mph 91 % 0 in
20:52 67.1 °F 64.4 °F 29.9 in SW 4 mph 7 mph 91 % 0 in
20:57 67.1 °F 64 °F 29.9 in WSW 2 mph 8 mph 90 % 0 in
21:02 66.9 °F 63.9 °F 29.9 in SW 6 mph 8 mph 90 % 0 in
21:12 66.9 °F 64.2 °F 29.9 in SW 6 mph 8 mph 91 % 0 in
21:17 66.7 °F 64 °F 29.9 in WSW 3 mph 9 mph 91 % 0 in
21:22 66.7 °F 64 °F 29.9 in West 3 mph 8 mph 91 % 0 in
21:32 66.6 °F 63.9 °F 29.9 in West 1 mph 8 mph 91 % 0 in
21:42 66.2 °F 63.5 °F 29.9 in West 1 mph 7 mph 91 % 0 in
21:47 66 °F 63.3 °F 29.9 in WSW 2 mph 6 mph 91 % 0 in
21:57 65.8 °F 63.1 °F 29.9 in WNW 4 mph 6 mph 91 % 0 in
22:02 65.8 °F 63.1 °F 29.9 in West 3 mph 6 mph 91 % 0 in
22:12 65.7 °F 62.6 °F 29.9 in WSW 2 mph 6 mph 90 % 0 in
22:17 65.5 °F 62.2 °F 29.9 in WNW 5 mph 7 mph 89 % 0 in
22:22 65.3 °F 62.1 °F 29.9 in WNW 6 mph 10 mph 89 % 0 in
22:27 65.1 °F 61.9 °F 29.9 in NW 1 mph 10 mph 89 % 0 in
22:32 64.9 °F 61.7 °F 29.9 in West 2 mph 10 mph 89 % 0 in
22:42 64.8 °F 61.2 °F 29.9 in WNW 3 mph 9 mph 88 % 0 in
22:52 64.2 °F 60.6 °F 29.9 in West 2 mph 10 mph 88 % 0 in
22:57 64.2 °F 60.6 °F 29.9 in West 3 mph 10 mph 88 % 0 in
23:02 64 °F 60.8 °F 29.9 in WNW 4 mph 9 mph 89 % 0 in
23:12 63.7 °F 60.4 °F 29.9 in NW 5 mph 9 mph 89 % 0 in
23:17 63.5 °F 60.3 °F 29.9 in Calm   8 mph 89 % 0 in
23:22 63.3 °F 60.1 °F 30 in NW 2 mph 8 mph 89 % 0 in
23:27 63.1 °F 59.5 °F 30 in WNW 4 mph 8 mph 88 % 0 in
23:32 62.8 °F 59.5 °F 30 in WNW 4 mph 8 mph 89 % 0 in
23:42 62.1 °F 58.8 °F 30 in WNW 7 mph 9 mph 89 % 0 in
23:47 61.7 °F 58.8 °F 30 in North 4 mph 9 mph 90 % 0 in
23:52 61.3 °F 58.5 °F 30 in NW 2 mph 9 mph 90 % 0 in
23:57 60.8 °F 57.9 °F 30 in NNW 1 mph 9 mph 90 % 0 in
Meteo18
Compliments of Weather Underground - 4 mb

Script developed by  Jim McMurry - jmcmurry@mwt.net Adapted for the template by  Wim van der Kuil - Leuven-Template.eu

You find our weather info also at:

European Weather Network

Weather Underground

Equipment we use:

Weather-station
Davis Vue

Weather-program
Meteohub

Weather-server
Raspberry PI 2 B+

Provider
1 and 1

Davis Vue

Meteohub

Raspberry PI 2 B+

1 and 1